Time;durP1;ratioP1;P1;durP2;ratioP2;P2;SDS_P1;SDS_P2;PMS_P1;PMS_P2;Temp;Humidity;BMP_temperature;BMP_pressure;BME280_temperature;BME280_humidity;BME280_pressure;Samples;Min_cycle;Max_cycle;Signal;HPM_P1;HPM_P2
2021/03/13 00:00:49;;;;;;;0.00;0.00;;;6.70;99.90;;;;;;6153112;23;20850;-69
2021/03/13 00:03:15;;;;;;;0.00;0.00;;;6.70;99.90;;;;;;6152788;23;20917;-69
2021/03/13 00:05:44;;;;;;;0.00;0.00;;;6.70;99.90;;;;;;6153558;23;20437;-68
2021/03/13 00:08:12;;;;;;;0.00;0.00;;;6.70;99.90;;;;;;6153396;23;20395;-69
2021/03/13 00:10:40;;;;;;;0.00;0.00;;;6.70;99.90;;;;;;6153311;23;20395;-69
2021/03/13 00:13:07;;;;;;;0.00;0.00;;;6.70;99.90;;;;;;6152425;23;20387;-69
2021/03/13 00:15:34;;;;;;;0.00;0.00;;;6.60;99.90;;;;;;6153388;23;20408;-67
2021/03/13 00:18:02;;;;;;;0.00;0.00;;;6.70;99.90;;;;;;6153482;23;20491;-69
2021/03/13 00:20:30;;;;;;;0.00;0.00;;;6.70;99.90;;;;;;6153078;23;20388;-70
2021/03/13 00:22:57;;;;;;;0.00;0.00;;;6.70;99.90;;;;;;6154414;23;20386;-68
2021/03/13 00:25:25;;;;;;;0.00;0.00;;;6.60;99.90;;;;;;6155065;23;20379;-69
2021/03/13 00:27:52;;;;;;;0.00;0.00;;;6.70;99.90;;;;;;6155243;23;20388;-68
2021/03/13 00:30:21;;;;;;;0.00;0.00;;;6.70;99.90;;;;;;6154833;23;20386;-69
2021/03/13 00:32:49;;;;;;;0.00;0.00;;;6.70;99.90;;;;;;6154537;23;20863;-69
2021/03/13 00:35:16;;;;;;;0.00;0.00;;;6.70;99.90;;;;;;6155525;23;20386;-69
2021/03/13 00:37:42;;;;;;;0.00;0.00;;;6.60;99.90;;;;;;6155003;23;20392;-68
2021/03/13 00:40:12;;;;;;;0.00;0.00;;;6.60;99.90;;;;;;6155110;23;20379;-69
2021/03/13 00:42:39;;;;;;;0.00;0.00;;;6.60;99.90;;;;;;6154351;23;20434;-68
2021/03/13 00:45:08;;;;;;;0.00;0.00;;;6.60;99.90;;;;;;6154883;23;20746;-70
2021/03/13 00:47:34;;;;;;;0.00;0.00;;;6.70;99.90;;;;;;6155100;23;20696;-68
2021/03/13 00:50:01;;;;;;;0.00;0.00;;;6.70;99.90;;;;;;6155278;23;20386;-69
2021/03/13 00:52:27;;;;;;;0.00;0.00;;;6.70;99.90;;;;;;6154417;23;20375;-69
2021/03/13 00:54:53;;;;;;;0.00;0.00;;;6.70;99.90;;;;;;6154547;23;20885;-69
2021/03/13 00:57:19;;;;;;;0.00;0.00;;;6.70;99.90;;;;;;6154900;23;20884;-69
2021/03/13 00:59:46;;;;;;;0.00;0.00;;;6.70;99.90;;;;;;6154623;23;20730;-69
2021/03/13 01:02:12;;;;;;;0.00;0.00;;;6.70;99.90;;;;;;6154800;23;20386;-68
2021/03/13 01:04:39;;;;;;;0.00;0.00;;;6.70;99.90;;;;;;6154303;23;20386;-68
2021/03/13 01:07:05;;;;;;;0.00;0.00;;;6.70;99.90;;;;;;6155122;23;20675;-68
2021/03/13 01:09:31;;;;;;;0.00;0.00;;;6.70;99.90;;;;;;6154449;23;20383;-69
2021/03/13 01:11:57;;;;;;;0.00;0.00;;;6.70;99.90;;;;;;6154218;23;20390;-69
2021/03/13 01:14:24;;;;;;;0.00;0.00;;;6.70;99.90;;;;;;6154709;23;20838;-69
2021/03/13 01:16:51;;;;;;;0.00;0.00;;;6.70;99.90;;;;;;6154689;23;20703;-69
2021/03/13 01:19:18;;;;;;;0.00;0.00;;;6.70;99.90;;;;;;6154899;23;20738;-69
2021/03/13 01:21:44;;;;;;;0.00;0.00;;;6.60;99.90;;;;;;6154185;23;20383;-69
2021/03/13 01:24:11;;;;;;;0.00;0.00;;;6.60;99.90;;;;;;6154060;23;20877;-69
2021/03/13 01:26:37;;;;;;;0.00;0.00;;;6.60;99.90;;;;;;6155050;23;20382;-68
2021/03/13 01:29:04;;;;;;;0.00;0.00;;;6.60;99.90;;;;;;6154354;23;20375;-69
2021/03/13 01:31:30;;;;;;;0.00;0.00;;;6.50;99.90;;;;;;6154953;23;20411;-69
2021/03/13 01:33:57;;;;;;;0.00;0.00;;;6.50;99.90;;;;;;6153534;23;20382;-69
2021/03/13 01:36:24;;;;;;;0.00;0.00;;;6.50;99.90;;;;;;6154369;23;20382;-69
2021/03/13 01:38:50;;;;;;;0.00;0.00;;;6.50;99.90;;;;;;6154458;23;20375;-69
2021/03/13 01:41:16;;;;;;;0.00;0.00;;;6.50;99.90;;;;;;6154860;23;20375;-70
2021/03/13 01:43:42;;;;;;;0.00;0.00;;;6.40;99.90;;;;;;6154130;23;20430;-69
2021/03/13 01:46:09;;;;;;;0.00;0.00;;;6.40;99.90;;;;;;6154419;23;20406;-69
2021/03/13 01:48:38;;;;;;;0.00;0.00;;;6.40;99.90;;;;;;6154865;23;20379;-70
2021/03/13 01:51:05;;;;;;;0.00;0.00;;;6.40;99.90;;;;;;6154218;23;20388;-68
2021/03/13 01:53:32;;;;;;;0.00;0.00;;;6.50;99.90;;;;;;6154426;23;20442;-68
2021/03/13 01:55:58;;;;;;;0.00;0.00;;;6.30;99.90;;;;;;6154250;23;20374;-68
2021/03/13 01:58:24;;;;;;;0.00;0.00;;;6.30;99.90;;;;;;6154632;23;20386;-69
2021/03/13 02:00:51;;;;;;;0.00;0.00;;;6.30;99.90;;;;;;6154597;23;20402;-70
2021/03/13 02:03:17;;;;;;;0.00;0.00;;;6.20;99.90;;;;;;6153897;23;20434;-70
2021/03/13 02:05:45;;;;;;;0.00;0.00;;;6.20;99.90;;;;;;6154318;23;20900;-70
2021/03/13 02:08:24;;;;;;;0.00;0.00;;;6.20;99.90;;;;;;6154356;23;20388;-70
2021/03/13 02:11:01;;;;;;;0.00;0.00;;;6.10;99.90;;;;;;6154398;23;20406;-68
2021/03/13 02:13:33;;;;;;;0.00;0.00;;;6.10;99.90;;;;;;6153654;23;20774;-70
2021/03/13 02:16:13;;;;;;;0.00;0.00;;;6.10;99.90;;;;;;6157834;23;20415;-70
2021/03/13 02:18:49;;;;;;;0.00;0.00;;;6.00;99.90;;;;;;6157857;23;20410;-71
2021/03/13 02:21:19;;;;;;;0.00;0.00;;;6.00;99.90;;;;;;6153267;23;20375;-70
2021/03/13 02:24:09;;;;;;;0.00;0.00;;;6.00;99.90;;;;;;6160989;23;20730;-70
2021/03/13 02:26:49;;;;;;;0.00;0.00;;;6.00;99.90;;;;;;6164965;23;20379;-70
2021/03/13 02:29:45;;;;;;;0.00;0.00;;;6.00;99.90;;;;;;6161395;23;20383;-70
2021/03/13 02:32:18;;;;;;;0.00;0.00;;;5.90;99.90;;;;;;6154526;23;20718;-70
2021/03/13 02:34:46;;;;;;;0.00;0.00;;;5.80;99.90;;;;;;6154237;23;20371;-70
2021/03/13 02:37:16;;;;;;;0.00;0.00;;;5.80;99.90;;;;;;6154773;23;20431;-70
2021/03/13 02:39:45;;;;;;;0.00;0.00;;;5.80;99.90;;;;;;6154255;23;20412;-70
2021/03/13 02:42:13;;;;;;;0.00;0.00;;;5.80;99.90;;;;;;6153985;23;20386;-70
2021/03/13 02:44:43;;;;;;;0.00;0.00;;;5.70;99.90;;;;;;6153646;23;20437;-70
2021/03/13 02:47:10;;;;;;;0.00;0.00;;;5.70;99.90;;;;;;6153611;23;20456;-70
2021/03/13 02:49:38;;;;;;;0.00;0.00;;;5.70;99.90;;;;;;6154304;23;20375;-70
2021/03/13 02:52:07;;;;;;;0.00;0.00;;;5.70;99.90;;;;;;6153707;23;20462;-70
2021/03/13 02:54:36;;;;;;;0.00;0.00;;;5.70;99.90;;;;;;6154342;23;20417;-70
2021/03/13 02:57:05;;;;;;;0.00;0.00;;;5.70;99.90;;;;;;6154090;23;20879;-70
2021/03/13 02:59:35;;;;;;;0.00;0.00;;;5.70;99.90;;;;;;6153799;23;20391;-69
2021/03/13 03:02:03;;;;;;;0.00;0.00;;;5.70;99.90;;;;;;6153775;23;20386;-69
2021/03/13 03:04:29;;;;;;;0.00;0.00;;;5.70;99.90;;;;;;6153803;23;20391;-70
2021/03/13 03:06:58;;;;;;;0.00;0.00;;;5.70;99.90;;;;;;6154248;23;20420;-70
2021/03/13 03:09:27;;;;;;;0.00;0.00;;;5.70;99.90;;;;;;6153763;23;20382;-69
2021/03/13 03:11:55;;;;;;;0.00;0.00;;;5.70;99.90;;;;;;6154358;23;20453;-70
2021/03/13 03:14:22;;;;;;;0.00;0.00;;;5.70;99.90;;;;;;6155715;23;20375;-70
2021/03/13 03:16:52;;;;;;;0.00;0.00;;;5.70;99.90;;;;;;6154817;23;20379;-70
2021/03/13 03:19:20;;;;;;;0.00;0.00;;;5.70;99.90;;;;;;6154803;23;20429;-70
2021/03/13 03:21:46;;;;;;;0.00;0.00;;;5.80;99.90;;;;;;6155881;23;20375;-70
2021/03/13 03:24:13;;;;;;;0.00;0.00;;;5.70;99.90;;;;;;6155101;23;20391;-70
2021/03/13 03:26:40;;;;;;;0.00;0.00;;;5.70;99.90;;;;;;6154640;23;20379;-70
2021/03/13 03:29:08;;;;;;;0.00;0.00;;;5.70;99.90;;;;;;6153969;23;20379;-70
2021/03/13 03:31:35;;;;;;;0.00;0.00;;;5.70;99.90;;;;;;6153973;23;20920;-69
2021/03/13 03:34:01;;;;;;;0.00;0.00;;;5.60;99.90;;;;;;6153059;23;20380;-69
2021/03/13 03:36:28;;;;;;;0.00;0.00;;;5.70;99.90;;;;;;6154401;23;20388;-70
2021/03/13 03:38:55;;;;;;;0.00;0.00;;;5.60;99.90;;;;;;6153532;23;20379;-69
2021/03/13 03:41:22;;;;;;;0.00;0.00;;;5.60;99.90;;;;;;6153696;23;20382;-69
2021/03/13 03:43:51;;;;;;;0.00;0.00;;;5.60;99.90;;;;;;6153467;23;20475;-70
2021/03/13 03:46:18;;;;;;;0.00;0.00;;;5.60;99.90;;;;;;6153886;23;20384;-70
2021/03/13 03:48:46;;;;;;;0.00;0.00;;;5.60;99.90;;;;;;6153944;23;20375;-69
2021/03/13 03:51:15;;;;;;;0.00;0.00;;;5.60;99.90;;;;;;6153665;23;20390;-70
2021/03/13 03:53:43;;;;;;;0.00;0.00;;;5.70;99.90;;;;;;6154081;23;20436;-69
2021/03/13 03:56:10;;;;;;;0.00;0.00;;;5.60;99.90;;;;;;6153088;23;20438;-69
2021/03/13 03:58:41;;;;;;;0.00;0.00;;;5.60;99.90;;;;;;6154311;23;20374;-70
2021/03/13 04:01:09;;;;;;;0.00;0.00;;;5.60;99.90;;;;;;6154562;23;20383;-70
2021/03/13 04:03:37;;;;;;;0.00;0.00;;;5.70;1.00;;;;;;6153101;23;20391;-69
2021/03/13 04:06:07;;;;;;;0.00;0.00;;;5.70;1.00;;;;;;6153279;23;20462;-70
2021/03/13 04:08:33;;;;;;;0.00;0.00;;;5.70;1.00;;;;;;6153341;23;20386;-69
2021/03/13 04:11:01;;;;;;;0.00;0.00;;;5.70;1.00;;;;;;6153235;23;20385;-71
2021/03/13 04:13:28;;;;;;;0.00;0.00;;;5.70;1.00;;;;;;6152564;23;20437;-69
2021/03/13 04:15:55;;;;;;;0.00;0.00;;;5.70;1.00;;;;;;6153207;23;20410;-71
2021/03/13 04:18:21;;;;;;;0.00;0.00;;;5.70;1.00;;;;;;6153545;23;20401;-70
2021/03/13 04:20:49;;;;;;;0.00;0.00;;;5.70;1.00;;;;;;6153168;23;20375;-69
2021/03/13 04:23:20;;;;;;;0.00;0.00;;;5.70;1.00;;;;;;6152993;23;20378;-70
2021/03/13 04:25:48;;;;;;;0.00;0.00;;;5.70;1.00;;;;;;6153083;23;20388;-67
2021/03/13 04:28:16;;;;;;;0.00;0.00;;;5.70;1.00;;;;;;6153738;23;20382;-70
2021/03/13 04:30:42;;;;;;;0.00;0.00;;;5.70;1.00;;;;;;6153399;23;20379;-70
2021/03/13 04:33:08;;;;;;;0.00;0.00;;;5.70;99.90;;;;;;6153239;23;20858;-70
2021/03/13 04:35:35;;;;;;;0.00;0.00;;;5.70;99.90;;;;;;6154441;23;20375;-70
2021/03/13 04:38:02;;;;;;;0.00;0.00;;;5.80;99.90;;;;;;6154742;23;20381;-69
2021/03/13 04:40:29;;;;;;;0.00;0.00;;;5.80;99.90;;;;;;6153500;23;20375;-70
2021/03/13 04:42:55;;;;;;;0.00;0.00;;;5.80;99.90;;;;;;6153167;23;20375;-70
2021/03/13 04:45:24;;;;;;;0.00;0.00;;;5.80;99.90;;;;;;6152591;23;20387;-69
2021/03/13 04:47:50;;;;;;;0.00;0.00;;;5.90;1.00;;;;;;6152864;23;20391;-69
2021/03/13 04:50:20;;;;;;;0.00;0.00;;;5.90;99.90;;;;;;6154176;23;20378;-68
2021/03/13 04:52:46;;;;;;;0.00;0.00;;;5.80;1.00;;;;;;6154265;23;20689;-69
2021/03/13 04:55:13;;;;;;;0.00;0.00;;;5.90;1.00;;;;;;6153670;23;20668;-70
2021/03/13 04:57:39;;;;;;;0.00;0.00;;;5.90;1.00;;;;;;6152939;23;20389;-68
2021/03/13 05:00:08;;;;;;;0.00;0.00;;;5.90;1.00;;;;;;6151848;23;20374;-68
2021/03/13 05:02:36;;;;;;;0.00;0.00;;;5.90;1.00;;;;;;6150955;23;20384;-67
2021/03/13 05:05:02;;;;;;;0.00;0.00;;;5.90;1.00;;;;;;6153700;23;20391;-68
2021/03/13 05:07:28;;;;;;;0.00;0.00;;;5.90;1.00;;;;;;6153462;23;20374;-67
2021/03/13 05:09:54;;;;;;;0.00;0.00;;;5.90;1.00;;;;;;6155752;23;20379;-66
2021/03/13 05:12:21;;;;;;;0.00;0.00;;;5.90;1.00;;;;;;6155443;23;20445;-70
2021/03/13 05:14:47;;;;;;;0.00;0.00;;;5.80;1.00;;;;;;6155656;23;20386;-68
2021/03/13 05:17:14;;;;;;;0.00;0.00;;;5.90;1.00;;;;;;6154964;23;20375;-70
2021/03/13 05:19:41;;;;;;;0.00;0.00;;;5.90;1.00;;;;;;6154860;23;20375;-70
2021/03/13 05:22:08;;;;;;;0.00;0.00;;;5.90;1.00;;;;;;6155239;23;20375;-69
2021/03/13 05:24:35;;;;;;;0.00;0.00;;;5.90;1.00;;;;;;6154889;23;20391;-70
2021/03/13 05:27:01;;;;;;;0.00;0.00;;;5.90;1.00;;;;;;6155709;23;20401;-68
2021/03/13 05:29:27;;;;;;;0.00;0.00;;;5.90;1.00;;;;;;6154775;23;20383;-70
2021/03/13 05:31:53;;;;;;;0.00;0.00;;;5.90;1.00;;;;;;6155004;23;20385;-69
2021/03/13 05:34:19;;;;;;;0.00;0.00;;;5.90;1.00;;;;;;6154588;23;20450;-68
2021/03/13 05:36:46;;;;;;;0.00;0.00;;;5.90;1.00;;;;;;6155086;23;20386;-70
2021/03/13 05:39:13;;;;;;;0.00;0.00;;;5.90;1.00;;;;;;6154856;23;20386;-70
2021/03/13 05:41:41;;;;;;;0.00;0.00;;;6.00;1.00;;;;;;6154693;23;20386;-70
2021/03/13 05:44:08;;;;;;;0.00;0.00;;;6.00;1.00;;;;;;6154715;23;20390;-70
2021/03/13 05:46:36;;;;;;;0.00;0.00;;;6.00;1.00;;;;;;6154551;23;20849;-71
2021/03/13 05:49:04;;;;;;;0.00;0.00;;;6.10;1.00;;;;;;6154551;23;20390;-71
2021/03/13 05:51:34;;;;;;;0.00;0.00;;;6.10;1.00;;;;;;6154440;23;20457;-70
2021/03/13 05:54:02;;;;;;;0.00;0.00;;;6.10;1.00;;;;;;6154520;23;20384;-69
2021/03/13 05:56:30;;;;;;;0.00;0.00;;;6.20;1.00;;;;;;6155555;23;20379;-70
2021/03/13 05:58:58;;;;;;;0.00;0.00;;;6.30;1.00;;;;;;6155146;23;20382;-70
2021/03/13 06:01:25;;;;;;;0.00;0.00;;;6.30;1.00;;;;;;6154830;23;20411;-70
2021/03/13 06:03:52;;;;;;;0.00;0.00;;;6.40;1.00;;;;;;6153776;23;20387;-69
2021/03/13 06:06:19;;;;;;;0.00;0.00;;;6.40;1.00;;;;;;6154777;23;20398;-70
2021/03/13 06:08:46;;;;;;;0.00;0.00;;;6.40;1.00;;;;;;6154212;23;20418;-70
2021/03/13 06:11:14;;;;;;;0.00;0.00;;;6.40;1.00;;;;;;6154806;23;20382;-69
2021/03/13 06:13:40;;;;;;;0.00;0.00;;;6.40;1.00;;;;;;6163197;23;20390;-70
2021/03/13 06:16:08;;;;;;;0.00;0.00;;;6.40;1.00;;;;;;6160379;23;20438;-69
2021/03/13 06:18:57;;;;;;;0.00;0.00;;;6.40;1.00;;;;;;6153128;23;20388;-69
2021/03/13 06:21:26;;;;;;;0.00;0.00;;;6.50;1.00;;;;;;6169736;23;20371;-71
2021/03/13 06:23:59;;;;;;;0.00;0.00;;;6.50;1.00;;;;;;6169354;23;20399;-71
2021/03/13 06:26:28;;;;;;;0.00;0.00;;;6.40;1.00;;;;;;6160138;23;20466;-70
2021/03/13 06:28:55;;;;;;;0.00;0.00;;;6.50;1.00;;;;;;6155075;23;20710;-70
2021/03/13 06:31:27;;;;;;;0.00;0.00;;;6.50;1.00;;;;;;6154286;23;20379;-70
2021/03/13 06:33:53;;;;;;;0.00;0.00;;;6.50;1.00;;;;;;6154368;23;20740;-69
2021/03/13 06:36:22;;;;;;;0.00;0.00;;;6.50;1.00;;;;;;6155619;23;20386;-70
2021/03/13 06:38:48;;;;;;;0.00;0.00;;;6.50;1.00;;;;;;6154855;23;20383;-70
2021/03/13 06:41:16;;;;;;;0.00;0.00;;;6.60;1.00;;;;;;6154588;23;20378;-70
2021/03/13 06:43:45;;;;;;;0.00;0.00;;;6.60;1.00;;;;;;6153850;23;20470;-70
2021/03/13 06:46:13;;;;;;;0.00;0.00;;;6.60;1.00;;;;;;6154871;23;20390;-70
2021/03/13 06:48:42;;;;;;;0.00;0.00;;;6.60;1.00;;;;;;6154552;23;20379;-69
2021/03/13 06:51:21;;;;;;;0.00;0.00;;;6.60;1.00;;;;;;6154460;23;20688;-71
2021/03/13 06:54:09;;;;;;;0.00;0.00;;;6.60;1.00;;;;;;6153869;23;20383;-70
2021/03/13 06:56:37;;;;;;;0.00;0.00;;;6.60;1.00;;;;;;6154499;23;20447;-69
2021/03/13 06:59:18;;;;;;;0.00;0.00;;;6.70;1.00;;;;;;6154398;23;20454;-69
2021/03/13 07:01:45;;;;;;;0.00;0.00;;;6.70;1.00;;;;;;6154385;23;20388;-68
2021/03/13 07:04:13;;;;;;;0.00;0.00;;;6.70;1.00;;;;;;6154200;23;20726;-70
2021/03/13 07:06:45;;;;;;;0.00;0.00;;;6.80;1.00;;;;;;6154109;23;20383;-70
2021/03/13 07:09:12;;;;;;;0.00;0.00;;;6.80;1.00;;;;;;6153594;23;20430;-70
2021/03/13 07:11:38;;;;;;;0.00;0.00;;;6.80;1.00;;;;;;6153761;23;20430;-70
2021/03/13 07:14:05;;;;;;;0.00;0.00;;;6.90;1.00;;;;;;6153362;23;20375;-70
2021/03/13 07:16:34;;;;;;;0.00;0.00;;;6.90;1.00;;;;;;6153747;23;20401;-70
2021/03/13 07:19:03;;;;;;;0.00;0.00;;;6.90;1.00;;;;;;6153459;23;20894;-70
2021/03/13 07:21:30;;;;;;;0.00;0.00;;;6.90;1.00;;;;;;6153786;23;20378;-69
2021/03/13 07:23:59;;;;;;;0.00;0.00;;;7.00;1.00;;;;;;6152676;23;20387;-71
2021/03/13 07:26:28;;;;;;;0.00;0.00;;;7.00;1.00;;;;;;6153616;23;20390;-71
2021/03/13 07:28:59;;;;;;;0.00;0.00;;;7.10;1.00;;;;;;6153446;23;20389;-71
2021/03/13 07:31:29;;;;;;;0.00;0.00;;;7.10;99.90;;;;;;6153718;23;20379;-71
2021/03/13 07:33:59;;;;;;;0.00;0.00;;;7.10;1.00;;;;;;6152645;23;20428;-70
2021/03/13 07:36:25;;;;;;;0.00;0.00;;;7.10;99.90;;;;;;6153737;23;20454;-70
2021/03/13 07:38:58;;;;;;;0.00;0.00;;;7.10;99.90;;;;;;6153861;23;20383;-70
2021/03/13 07:41:25;;;;;;;0.00;0.00;;;7.10;1.00;;;;;;6153663;23;20395;-69
2021/03/13 07:43:53;;;;;;;0.00;0.00;;;6.90;99.90;;;;;;6153817;23;20370;-70
2021/03/13 07:46:21;;;;;;;0.00;0.00;;;6.90;1.00;;;;;;6153720;23;20379;-70
2021/03/13 07:48:49;;;;;;;0.00;0.00;;;6.80;1.00;;;;;;6153527;23;20429;-69
2021/03/13 07:51:15;;;;;;;0.00;0.00;;;6.70;99.90;;;;;;6153230;23;20438;-69
2021/03/13 07:53:43;;;;;;;0.00;0.00;;;6.60;99.90;;;;;;6153181;23;20379;-71
2021/03/13 07:56:12;;;;;;;0.00;0.00;;;6.50;99.90;;;;;;6152986;23;20862;-70
2021/03/13 07:58:39;;;;;;;0.00;0.00;;;6.40;99.90;;;;;;6153391;23;20402;-71
2021/03/13 08:01:06;;;;;;;0.00;0.00;;;6.40;99.90;;;;;;6153470;23;20382;-69
2021/03/13 08:03:48;;;;;;;0.00;0.00;;;6.40;99.90;;;;;;6152585;23;20378;-70
2021/03/13 08:06:17;;;;;;;0.00;0.00;;;6.40;99.90;;;;;;6153427;23;20383;-69
2021/03/13 08:08:45;;;;;;;0.00;0.00;;;6.30;99.90;;;;;;6152820;23;20378;-70
2021/03/13 08:11:12;;;;;;;0.00;0.00;;;6.30;99.90;;;;;;6153655;23;20375;-69
2021/03/13 08:13:56;;;;;;;0.00;0.00;;;6.20;99.90;;;;;;6152647;23;20378;-70
2021/03/13 08:16:46;;;;;;;0.00;0.00;;;6.20;99.90;;;;;;6153378;23;20411;-70
2021/03/13 08:19:32;;;;;;;0.00;0.00;;;6.20;99.90;;;;;;6137390;23;20394;-70
2021/03/13 08:22:14;;;;;;;0.00;0.00;;;6.30;99.90;;;;;;6153564;23;20384;-70
2021/03/13 08:24:42;;;;;;;0.00;0.00;;;6.30;99.90;;;;;;6152783;23;20410;-70
2021/03/13 08:27:10;;;;;;;0.00;0.00;;;6.30;99.90;;;;;;6153357;23;20392;-70
2021/03/13 08:30:01;;;;;;;0.00;0.00;;;6.30;99.90;;;;;;6153729;23;20406;-70
2021/03/13 08:33:04;;;;;;;0.00;0.00;;;6.40;99.90;;;;;;6159294;23;20392;-71
2021/03/13 08:35:51;;;;;;;0.00;0.00;;;6.40;99.90;;;;;;6155466;23;20672;-71
2021/03/13 08:38:53;;;;;;;0.00;0.00;;;6.40;99.90;;;;;;6153669;23;20410;-70
2021/03/13 08:41:48;;;;;;;0.00;0.00;;;6.40;99.90;;;;;;6153288;23;20403;-71
2021/03/13 08:44:28;;;;;;;0.00;0.00;;;6.50;99.90;;;;;;6154147;23;20922;-70
2021/03/13 08:47:06;;;;;;;0.00;0.00;;;6.50;99.90;;;;;;6155351;23;20419;-71
2021/03/13 08:49:39;;;;;;;0.00;0.00;;;6.60;99.90;;;;;;6155000;23;20706;-70
2021/03/13 08:52:28;;;;;;;0.00;0.00;;;6.70;99.90;;;;;;6155248;23;20867;-70
2021/03/13 08:54:56;;;;;;;0.00;0.00;;;6.70;99.90;;;;;;6154848;23;20398;-70
2021/03/13 08:57:45;;;;;;;0.00;0.00;;;6.80;99.90;;;;;;6155760;23;20378;-69
2021/03/13 09:00:16;;;;;;;0.00;0.00;;;6.80;99.90;;;;;;6152947;23;20391;-68
2021/03/13 09:02:43;;;;;;;0.00;0.00;;;6.80;99.90;;;;;;6153786;23;20386;-69
2021/03/13 09:05:11;;;;;;;0.00;0.00;;;6.70;99.90;;;;;;6154600;23;20476;-70
2021/03/13 09:07:38;;;;;;;0.00;0.00;;;6.70;99.90;;;;;;6154670;23;20438;-70
2021/03/13 09:10:07;;;;;;;0.00;0.00;;;6.70;99.90;;;;;;6154664;23;20382;-70
2021/03/13 09:12:35;;;;;;;0.00;0.00;;;6.70;99.90;;;;;;6153687;23;20714;-69
2021/03/13 09:15:04;;;;;;;0.00;0.00;;;6.80;99.90;;;;;;6154572;23;20383;-69
2021/03/13 09:17:32;;;;;;;0.00;0.00;;;6.90;99.90;;;;;;6154224;23;20401;-67
2021/03/13 09:20:01;;;;;;;0.00;0.00;;;6.90;99.90;;;;;;6154446;23;20375;-69
2021/03/13 09:22:28;;;;;;;0.00;0.00;;;6.90;99.90;;;;;;6154216;23;20428;-68
2021/03/13 09:24:55;;;;;;;0.00;0.00;;;6.90;99.90;;;;;;6154837;23;20398;-70
2021/03/13 09:27:24;;;;;;;0.00;0.00;;;6.90;99.90;;;;;;6154778;23;20392;-69
2021/03/13 09:29:53;;;;;;;0.00;0.00;;;6.90;99.90;;;;;;6154482;23;20388;-69
2021/03/13 09:32:20;;;;;;;0.00;0.00;;;6.90;99.90;;;;;;6154666;23;20395;-69
2021/03/13 09:34:47;;;;;;;0.00;0.00;;;7.00;99.90;;;;;;6153855;23;20858;-71
2021/03/13 09:37:14;;;;;;;0.00;0.00;;;7.10;99.90;;;;;;6154715;23;20379;-70
2021/03/13 09:39:41;;;;;;;0.00;0.00;;;7.10;99.90;;;;;;6154011;23;20399;-72
2021/03/13 09:42:18;;;;;;;0.00;0.00;;;7.10;99.90;;;;;;6154721;23;20386;-70
2021/03/13 09:44:47;;;;;;;0.00;0.00;;;7.00;99.90;;;;;;6154182;23;20391;-71
2021/03/13 09:47:19;;;;;;;0.00;0.00;;;7.10;99.90;;;;;;6154680;23;20384;-70
2021/03/13 09:49:47;;;;;;;0.00;0.00;;;7.30;99.90;;;;;;6154471;23;20810;-71
2021/03/13 09:52:14;;;;;;;0.00;0.00;;;7.40;99.90;;;;;;6154004;23;20375;-69
2021/03/13 09:54:42;;;;;;;0.00;0.00;;;7.40;99.90;;;;;;6153687;23;20742;-70
2021/03/13 09:57:10;;;;;;;0.00;0.00;;;7.30;99.90;;;;;;6154281;23;20691;-70
2021/03/13 09:59:36;;;;;;;0.00;0.00;;;7.30;99.90;;;;;;6154207;23;20667;-70
2021/03/13 10:02:04;;;;;;;0.00;0.00;;;7.10;99.90;;;;;;6154427;23;20378;-70
2021/03/13 10:04:31;;;;;;;0.00;0.00;;;6.90;99.90;;;;;;6151904;23;20386;-69
2021/03/13 10:06:58;;;;;;;0.00;0.00;;;6.70;99.90;;;;;;6152634;23;20379;-68
2021/03/13 10:09:24;;;;;;;0.00;0.00;;;6.80;99.90;;;;;;6153817;23;20375;-70
2021/03/13 10:11:50;;;;;;;0.00;0.00;;;6.90;99.90;;;;;;6153871;23;20889;-69
2021/03/13 10:14:18;;;;;;;0.00;0.00;;;7.00;99.90;;;;;;6156765;23;20382;-70
2021/03/13 10:16:45;;;;;;;0.00;0.00;;;7.00;99.90;;;;;;6161787;23;20388;-69
2021/03/13 10:19:39;;;;;;;0.00;0.00;;;7.00;99.90;;;;;;6159514;23;20447;-68
2021/03/13 10:22:15;;;;;;;0.00;0.00;;;7.10;99.90;;;;;;6157669;23;20427;-71
2021/03/13 10:24:46;;;;;;;0.00;0.00;;;7.20;99.90;;;;;;6161921;23;20448;-71
2021/03/13 10:27:19;;;;;;;0.00;0.00;;;7.30;99.90;;;;;;6156958;23;20380;-69
2021/03/13 10:29:50;;;;;;;0.00;0.00;;;7.40;99.90;;;;;;6155248;23;20423;-70
2021/03/13 10:36:22;;;;;;;0.00;0.00;;;7.40;99.90;;;;;;6080382;23;20458;-70
2021/03/13 10:38:51;;;;;;;0.00;0.00;;;7.90;99.90;;;;;;6153063;23;20443;-68
2021/03/13 10:41:20;;;;;;;0.00;0.00;;;7.60;99.90;;;;;;6153632;23;20448;-67
2021/03/13 10:43:47;;;;;;;0.00;0.00;;;7.70;99.90;;;;;;6153009;23;20462;-68
2021/03/13 10:46:16;;;;;;;0.00;0.00;;;7.80;99.90;;;;;;6153602;23;20387;-68
2021/03/13 10:49:04;;;;;;;0.00;0.00;;;7.90;99.90;;;;;;6153148;23;20439;-67
2021/03/13 10:51:32;;;;;;;0.00;0.00;;;8.00;99.90;;;;;;6152444;23;20375;-68
2021/03/13 10:54:00;;;;;;;0.00;0.00;;;7.90;99.90;;;;;;6151339;23;20427;-68
2021/03/13 10:56:38;;;;;;;0.00;0.00;;;7.80;99.90;;;;;;6153635;23;20379;-67
2021/03/13 10:59:06;;;;;;;0.00;0.00;;;7.80;99.90;;;;;;6153999;23;20388;-69
2021/03/13 11:01:34;;;;;;;0.00;0.00;;;7.70;99.90;;;;;;6154105;23;20398;-69
2021/03/13 11:04:01;;;;;;;0.00;0.00;;;7.80;99.90;;;;;;6154139;23;20775;-69
2021/03/13 11:06:30;;;;;;;0.00;0.00;;;7.60;99.90;;;;;;6153925;23;20398;-69
2021/03/13 11:09:00;;;;;;;0.00;0.00;;;8.40;99.90;;;;;;6153215;23;20377;-69
2021/03/13 11:11:38;;;;;;;0.00;0.00;;;8.60;99.90;;;;;;6152858;23;20387;-69
2021/03/13 11:14:07;;;;;;;0.00;0.00;;;8.70;99.90;;;;;;6151963;23;20953;-69
2021/03/13 11:16:33;;;;;;;0.00;0.00;;;8.70;99.90;;;;;;6153420;23;20683;-69
2021/03/13 11:18:59;;;;;;;0.00;0.00;;;8.60;99.90;;;;;;6153862;23;20383;-69
2021/03/13 11:21:27;;;;;;;0.00;0.00;;;8.40;99.90;;;;;;6153781;23;20387;-68
2021/03/13 11:23:53;;;;;;;0.00;0.00;;;8.20;99.90;;;;;;6152794;23;20395;-68
2021/03/13 11:26:22;;;;;;;0.00;0.00;;;7.70;99.90;;;;;;6153302;23;20403;-67
2021/03/13 11:28:49;;;;;;;0.00;0.00;;;7.10;99.90;;;;;;6153439;23;20389;-67
2021/03/13 11:31:16;;;;;;;0.00;0.00;;;6.80;99.90;;;;;;6153171;23;20379;-70
2021/03/13 11:33:43;;;;;;;0.00;0.00;;;6.60;99.90;;;;;;6152256;23;20426;-68
2021/03/13 11:36:10;;;;;;;0.00;0.00;;;6.80;99.90;;;;;;6153019;23;20383;-69
2021/03/13 11:38:38;;;;;;;0.00;0.00;;;7.10;99.90;;;;;;6153027;23;20470;-70
2021/03/13 11:41:06;;;;;;;0.00;0.00;;;7.30;99.90;;;;;;6153008;23;20749;-70
2021/03/13 11:43:35;;;;;;;0.00;0.00;;;7.50;99.90;;;;;;6152546;23;20389;-70
2021/03/13 11:46:03;;;;;;;0.00;0.00;;;7.70;99.90;;;;;;6153037;23;20926;-70
2021/03/13 11:48:29;;;;;;;0.00;0.00;;;7.80;99.90;;;;;;6153548;23;20367;-70
2021/03/13 11:50:55;;;;;;;0.00;0.00;;;8.00;99.90;;;;;;6152529;23;20437;-70
2021/03/13 11:53:22;;;;;;;0.00;0.00;;;8.90;99.90;;;;;;6152212;23;20462;-70
2021/03/13 11:55:49;;;;;;;0.00;0.00;;;8.40;99.90;;;;;;6152848;23;20391;-70
2021/03/13 11:58:15;;;;;;;0.00;0.00;;;8.60;99.90;;;;;;6152912;23;20441;-70
2021/03/13 12:00:42;;;;;;;0.00;0.00;;;8.60;99.90;;;;;;6152906;23;20375;-71
2021/03/13 12:03:08;;;;;;;0.00;0.00;;;8.60;99.90;;;;;;6152476;23;20379;-68
2021/03/13 12:05:35;;;;;;;0.00;0.00;;;8.40;99.90;;;;;;6152817;23;20414;-71
2021/03/13 12:08:01;;;;;;;0.00;0.00;;;8.10;99.90;;;;;;6153044;23;20449;-69
2021/03/13 12:10:28;;;;;;;0.00;0.00;;;8.00;99.90;;;;;;6152503;23;20379;-73
2021/03/13 12:13:01;;;;;;;0.00;0.00;;;8.00;99.90;;;;;;6151349;23;20913;-70
2021/03/13 12:15:27;;;;;;;0.00;0.00;;;8.30;99.90;;;;;;6152878;23;20433;-67
2021/03/13 12:17:54;;;;;;;0.00;0.00;;;8.60;99.90;;;;;;6152398;23;20426;-67
2021/03/13 12:20:20;;;;;;;0.00;0.00;;;8.80;99.90;;;;;;6152800;23;20383;-67
2021/03/13 12:22:46;;;;;;;0.00;0.00;;;8.90;99.90;;;;;;6152134;23;20381;-70
2021/03/13 12:25:13;;;;;;;0.00;0.00;;;8.90;99.90;;;;;;6152803;23;20391;-68
2021/03/13 12:27:39;;;;;;;0.00;0.00;;;8.90;99.90;;;;;;6153407;23;20454;-67
2021/03/13 12:30:07;;;;;;;0.00;0.00;;;8.80;99.90;;;;;;6152234;23;20410;-67
2021/03/13 12:32:34;;;;;;;0.00;0.00;;;8.90;99.90;;;;;;6152359;23;20379;-67
2021/03/13 12:35:02;;;;;;;0.00;0.00;;;8.90;99.90;;;;;;6151954;23;20387;-67
2021/03/13 12:37:29;;;;;;;0.00;0.00;;;8.70;99.90;;;;;;6152466;23;20887;-67
2021/03/13 12:39:55;;;;;;;0.00;0.00;;;8.60;99.90;;;;;;6152356;23;20379;-67
2021/03/13 12:42:21;;;;;;;0.00;0.00;;;8.60;99.90;;;;;;6151562;23;20387;-69
2021/03/13 12:44:49;;;;;;;0.00;0.00;;;8.60;99.90;;;;;;6152249;23;20394;-71
2021/03/13 12:47:16;;;;;;;0.00;0.00;;;8.50;99.90;;;;;;6151274;23;20829;-67
2021/03/13 12:49:42;;;;;;;0.00;0.00;;;8.30;99.90;;;;;;6152709;23;20413;-67
2021/03/13 12:52:09;;;;;;;0.00;0.00;;;7.80;99.90;;;;;;6153112;23;20379;-67
2021/03/13 12:54:35;;;;;;;0.00;0.00;;;7.10;99.90;;;;;;6151702;23;20463;-68
2021/03/13 12:57:02;;;;;;;0.00;0.00;;;6.30;99.90;;;;;;6152807;23;20379;-66
2021/03/13 12:59:28;;;;;;;0.00;0.00;;;6.00;99.90;;;;;;6152406;23;20680;-66
2021/03/13 13:01:54;;;;;;;0.00;0.00;;;5.90;99.90;;;;;;6152205;23;20375;-67
2021/03/13 13:04:21;;;;;;;0.00;0.00;;;6.10;99.90;;;;;;6149950;23;20389;-67
2021/03/13 13:06:47;;;;;;;0.00;0.00;;;6.10;99.90;;;;;;6151805;23;20794;-66
2021/03/13 13:09:14;;;;;;;0.00;0.00;;;6.20;99.90;;;;;;6152560;23;20379;-66
2021/03/13 13:11:40;;;;;;;0.00;0.00;;;6.20;99.90;;;;;;6152231;23;20382;-65
2021/03/13 13:14:06;;;;;;;0.00;0.00;;;6.20;99.90;;;;;;6151229;23;20422;-67